Callands, Virginia
Current Conditions -  °F | °C
As of 7:53 AM on Thursday 27 Nov 2014 (Local Time) from KDAN Reporting Station
Light Rain Light Rain  
Wind Chill: 37°   Ceiling: 2800
Heat Index: 41°   Visibility: 7mi
Dew Point: 38°   Wind: 6mph
Humidity: 89%   Direction: 70°ENE
Pressure: 30.02"   Gusts: NA
Location:  36.82°N, 79.59°W
Report Text: KDAN 271253Z AUTO 07005KT 7SM -RA SCT016 OVC028 05/03 A3002 RMK AO2 SLP161 P0005 T00500033
Loading
Personal Weather Stations






























Interactive Weather Map New forecast layout! Learn more

10-Day Weather Forecast

Advertisements
Track Severe Weather on mobile